Mont Alto, Pennsylvania
Current Conditions -  °F | °C
As of 5:53 AM on Sunday 26 Oct 2014 (Local Time) from KHGR Reporting Station
Clear Clear  
Wind Chill: 54°   Ceiling: Unl
Heat Index: 54°   Visibility: 10mi
Dew Point: 33°   Wind: 16mph
Humidity: 45%   Direction: 300°WNW
Pressure: 29.74"   Gusts: 25mph
Location:  39.84°N, 77.56°W
Report Text: KHGR 260953Z AUTO 30014G22KT 10SM CLR 12/01 A2974 RMK AO2 SLP080 T01220006
Loading
Personal Weather Stations






























Interactive Weather Map
Tropical Storm Tracking
New forecast layout! Learn more

10-Day Weather Forecast

Advertisements
Track Severe Weather on mobile